sensor_id;sensor_type;location;lat;lon;timestamp;temperature;humidity
20446;DHT22;10382;49.140;9.234;2023-10-13T00:01:21;18.80;1.00
20446;DHT22;10382;49.140;9.234;2023-10-13T00:03:48;18.60;1.00
20446;DHT22;10382;49.140;9.234;2023-10-13T00:06:16;18.40;1.00
20446;DHT22;10382;49.140;9.234;2023-10-13T00:08:43;18.30;1.00
20446;DHT22;10382;49.140;9.234;2023-10-13T00:11:12;18.20;1.00
20446;DHT22;10382;49.140;9.234;2023-10-13T00:13:41;18.10;1.00
20446;DHT22;10382;49.140;9.234;2023-10-13T00:16:16;18.10;1.00
20446;DHT22;10382;49.140;9.234;2023-10-13T00:18:47;18.10;1.00
20446;DHT22;10382;49.140;9.234;2023-10-13T00:21:17;18.00;1.00
20446;DHT22;10382;49.140;9.234;2023-10-13T00:23:57;18.00;1.00
20446;DHT22;10382;49.140;9.234;2023-10-13T00:26:28;18.00;1.00
20446;DHT22;10382;49.140;9.234;2023-10-13T00:28:58;18.00;1.00
20446;DHT22;10382;49.140;9.234;2023-10-13T00:31:35;18.00;1.00
20446;DHT22;10382;49.140;9.234;2023-10-13T00:34:04;17.80;1.00
20446;DHT22;10382;49.140;9.234;2023-10-13T00:36:44;17.70;1.00
20446;DHT22;10382;49.140;9.234;2023-10-13T00:39:14;17.70;1.00
20446;DHT22;10382;49.140;9.234;2023-10-13T00:41:42;17.60;1.00
20446;DHT22;10382;49.140;9.234;2023-10-13T00:44:24;17.50;1.00
20446;DHT22;10382;49.140;9.234;2023-10-13T00:46:54;17.30;1.00
20446;DHT22;10382;49.140;9.234;2023-10-13T00:49:22;17.30;1.00
20446;DHT22;10382;49.140;9.234;2023-10-13T00:51:49;17.40;1.00
20446;DHT22;10382;49.140;9.234;2023-10-13T00:54:17;17.40;1.00
20446;DHT22;10382;49.140;9.234;2023-10-13T00:56:46;17.50;1.00
20446;DHT22;10382;49.140;9.234;2023-10-13T00:59:15;17.50;1.00
20446;DHT22;10382;49.140;9.234;2023-10-13T01:01:42;17.50;1.00
20446;DHT22;10382;49.140;9.234;2023-10-13T01:04:10;17.50;1.00
20446;DHT22;10382;49.140;9.234;2023-10-13T01:06:38;17.60;1.00
20446;DHT22;10382;49.140;9.234;2023-10-13T01:09:06;17.60;1.00
20446;DHT22;10382;49.140;9.234;2023-10-13T01:11:44;17.70;1.00
20446;DHT22;10382;49.140;9.234;2023-10-13T01:14:12;17.70;1.00
20446;DHT22;10382;49.140;9.234;2023-10-13T01:16:38;17.70;1.00
20446;DHT22;10382;49.140;9.234;2023-10-13T01:19:10;17.70;1.00
20446;DHT22;10382;49.140;9.234;2023-10-13T01:21:38;17.70;1.00
20446;DHT22;10382;49.140;9.234;2023-10-13T01:24:08;17.70;1.00
20446;DHT22;10382;49.140;9.234;2023-10-13T01:26:34;17.70;1.00
20446;DHT22;10382;49.140;9.234;2023-10-13T01:29:05;17.60;1.00
20446;DHT22;10382;49.140;9.234;2023-10-13T01:31:40;17.60;1.00
20446;DHT22;10382;49.140;9.234;2023-10-13T01:34:12;17.50;1.00
20446;DHT22;10382;49.140;9.234;2023-10-13T01:36:38;17.40;1.00
20446;DHT22;10382;49.140;9.234;2023-10-13T01:39:07;17.30;1.00
20446;DHT22;10382;49.140;9.234;2023-10-13T01:41:33;17.20;1.00
20446;DHT22;10382;49.140;9.234;2023-10-13T01:44:03;17.20;1.00
20446;DHT22;10382;49.140;9.234;2023-10-13T01:46:30;17.20;1.00
20446;DHT22;10382;49.140;9.234;2023-10-13T01:48:57;17.00;1.00
20446;DHT22;10382;49.140;9.234;2023-10-13T01:51:23;17.00;1.00
20446;DHT22;10382;49.140;9.234;2023-10-13T01:53:50;17.00;1.00
20446;DHT22;10382;49.140;9.234;2023-10-13T01:56:23;17.00;1.00
20446;DHT22;10382;49.140;9.234;2023-10-13T01:58:51;16.90;1.00
20446;DHT22;10382;49.140;9.234;2023-10-13T02:01:17;17.00;1.00
20446;DHT22;10382;49.140;9.234;2023-10-13T02:03:52;17.00;1.00
20446;DHT22;10382;49.140;9.234;2023-10-13T02:06:27;16.80;1.00
20446;DHT22;10382;49.140;9.234;2023-10-13T02:08:59;16.80;1.00
20446;DHT22;10382;49.140;9.234;2023-10-13T02:11:32;16.80;1.00
20446;DHT22;10382;49.140;9.234;2023-10-13T02:13:59;16.80;1.00
20446;DHT22;10382;49.140;9.234;2023-10-13T02:16:25;16.80;1.00
20446;DHT22;10382;49.140;9.234;2023-10-13T02:18:53;16.90;1.00
20446;DHT22;10382;49.140;9.234;2023-10-13T02:21:19;16.90;1.00
20446;DHT22;10382;49.140;9.234;2023-10-13T02:23:46;16.90;1.00
20446;DHT22;10382;49.140;9.234;2023-10-13T02:26:25;16.90;1.00
20446;DHT22;10382;49.140;9.234;2023-10-13T02:28:59;16.90;1.00
20446;DHT22;10382;49.140;9.234;2023-10-13T02:31:27;17.00;1.00
20446;DHT22;10382;49.140;9.234;2023-10-13T02:33:54;16.70;1.00
20446;DHT22;10382;49.140;9.234;2023-10-13T02:36:20;16.70;1.00
20446;DHT22;10382;49.140;9.234;2023-10-13T02:39:02;16.70;1.00
20446;DHT22;10382;49.140;9.234;2023-10-13T02:41:33;16.70;1.00
20446;DHT22;10382;49.140;9.234;2023-10-13T02:44:04;16.60;1.00
20446;DHT22;10382;49.140;9.234;2023-10-13T02:46:31;16.60;1.00
20446;DHT22;10382;49.140;9.234;2023-10-13T02:49:02;16.60;1.00
20446;DHT22;10382;49.140;9.234;2023-10-13T02:51:35;16.50;1.00
20446;DHT22;10382;49.140;9.234;2023-10-13T02:54:03;16.50;1.00
20446;DHT22;10382;49.140;9.234;2023-10-13T02:56:29;16.60;1.00
20446;DHT22;10382;49.140;9.234;2023-10-13T02:58:56;16.60;1.00
20446;DHT22;10382;49.140;9.234;2023-10-13T03:01:23;16.60;1.00
20446;DHT22;10382;49.140;9.234;2023-10-13T03:03:54;16.60;1.00
20446;DHT22;10382;49.140;9.234;2023-10-13T03:06:22;16.60;1.00
20446;DHT22;10382;49.140;9.234;2023-10-13T03:08:58;16.60;1.00
20446;DHT22;10382;49.140;9.234;2023-10-13T03:11:26;16.60;1.00
20446;DHT22;10382;49.140;9.234;2023-10-13T03:13:59;16.70;1.00
20446;DHT22;10382;49.140;9.234;2023-10-13T03:16:26;16.70;1.00
20446;DHT22;10382;49.140;9.234;2023-10-13T03:18:54;16.70;1.00
20446;DHT22;10382;49.140;9.234;2023-10-13T03:21:22;16.80;1.00
20446;DHT22;10382;49.140;9.234;2023-10-13T03:24:02;16.80;1.00
20446;DHT22;10382;49.140;9.234;2023-10-13T03:26:33;16.80;1.00
20446;DHT22;10382;49.140;9.234;2023-10-13T03:29:02;16.80;1.00
20446;DHT22;10382;49.140;9.234;2023-10-13T03:31:34;16.90;1.00
20446;DHT22;10382;49.140;9.234;2023-10-13T03:34:04;16.90;1.00
20446;DHT22;10382;49.140;9.234;2023-10-13T03:36:37;16.90;1.00
20446;DHT22;10382;49.140;9.234;2023-10-13T03:39:23;16.90;1.00
20446;DHT22;10382;49.140;9.234;2023-10-13T03:41:55;17.00;1.00
20446;DHT22;10382;49.140;9.234;2023-10-13T03:44:22;17.00;1.00
20446;DHT22;10382;49.140;9.234;2023-10-13T03:46:50;17.00;1.00
20446;DHT22;10382;49.140;9.234;2023-10-13T03:49:20;17.00;1.00
20446;DHT22;10382;49.140;9.234;2023-10-13T03:51:48;17.00;1.00
20446;DHT22;10382;49.140;9.234;2023-10-13T03:54:23;16.90;1.00
20446;DHT22;10382;49.140;9.234;2023-10-13T03:56:50;16.90;1.00
20446;DHT22;10382;49.140;9.234;2023-10-13T03:59:21;16.90;1.00
20446;DHT22;10382;49.140;9.234;2023-10-13T04:01:50;16.90;1.00
20446;DHT22;10382;49.140;9.234;2023-10-13T04:04:26;16.90;1.00
20446;DHT22;10382;49.140;9.234;2023-10-13T04:07:09;16.80;1.00
20446;DHT22;10382;49.140;9.234;2023-10-13T04:09:52;16.80;1.00
20446;DHT22;10382;49.140;9.234;2023-10-13T04:12:35;16.80;1.00
20446;DHT22;10382;49.140;9.234;2023-10-13T04:15:19;16.80;1.00
20446;DHT22;10382;49.140;9.234;2023-10-13T04:17:51;16.80;1.00
20446;DHT22;10382;49.140;9.234;2023-10-13T04:20:18;16.80;1.00
20446;DHT22;10382;49.140;9.234;2023-10-13T04:22:58;16.70;1.00
20446;DHT22;10382;49.140;9.234;2023-10-13T04:25:44;16.70;1.00
20446;DHT22;10382;49.140;9.234;2023-10-13T04:28:29;16.70;1.00
20446;DHT22;10382;49.140;9.234;2023-10-13T04:31:03;16.60;1.00
20446;DHT22;10382;49.140;9.234;2023-10-13T04:33:39;16.60;1.00
20446;DHT22;10382;49.140;9.234;2023-10-13T04:36:17;16.60;1.00
20446;DHT22;10382;49.140;9.234;2023-10-13T04:38:49;16.50;1.00
20446;DHT22;10382;49.140;9.234;2023-10-13T04:41:24;16.50;1.00
20446;DHT22;10382;49.140;9.234;2023-10-13T04:43:51;16.50;1.00
20446;DHT22;10382;49.140;9.234;2023-10-13T04:46:31;16.40;1.00
20446;DHT22;10382;49.140;9.234;2023-10-13T04:49:21;16.40;1.00
20446;DHT22;10382;49.140;9.234;2023-10-13T04:51:55;16.20;1.00
20446;DHT22;10382;49.140;9.234;2023-10-13T04:54:25;16.20;1.00
20446;DHT22;10382;49.140;9.234;2023-10-13T04:57:10;16.20;1.00
20446;DHT22;10382;49.140;9.234;2023-10-13T04:59:59;16.00;1.00
20446;DHT22;10382;49.140;9.234;2023-10-13T05:02:45;16.10;1.00
20446;DHT22;10382;49.140;9.234;2023-10-13T05:05:31;16.10;1.00
20446;DHT22;10382;49.140;9.234;2023-10-13T05:08:27;16.10;1.00
20446;DHT22;10382;49.140;9.234;2023-10-13T05:11:11;16.10;1.00
20446;DHT22;10382;49.140;9.234;2023-10-13T05:13:56;16.10;1.00
20446;DHT22;10382;49.140;9.234;2023-10-13T05:16:40;16.00;1.00
20446;DHT22;10382;49.140;9.234;2023-10-13T05:19:24;15.90;1.00
20446;DHT22;10382;49.140;9.234;2023-10-13T05:22:09;16.00;1.00
20446;DHT22;10382;49.140;9.234;2023-10-13T05:24:54;16.10;1.00
20446;DHT22;10382;49.140;9.234;2023-10-13T05:27:38;16.10;1.00
20446;DHT22;10382;49.140;9.234;2023-10-13T05:30:22;16.10;1.00
20446;DHT22;10382;49.140;9.234;2023-10-13T05:33:06;16.20;1.00
20446;DHT22;10382;49.140;9.234;2023-10-13T05:35:50;16.20;1.00
20446;DHT22;10382;49.140;9.234;2023-10-13T05:38:36;16.20;1.00
20446;DHT22;10382;49.140;9.234;2023-10-13T05:41:20;16.10;1.00
20446;DHT22;10382;49.140;9.234;2023-10-13T05:44:05;16.20;1.00
20446;DHT22;10382;49.140;9.234;2023-10-13T05:46:50;16.20;1.00
20446;DHT22;10382;49.140;9.234;2023-10-13T05:49:48;16.20;1.00
20446;DHT22;10382;49.140;9.234;2023-10-13T05:52:30;16.00;1.00
20446;DHT22;10382;49.140;9.234;2023-10-13T05:55:15;16.10;1.00
20446;DHT22;10382;49.140;9.234;2023-10-13T05:58:00;16.10;1.00
20446;DHT22;10382;49.140;9.234;2023-10-13T06:00:44;16.20;1.00
20446;DHT22;10382;49.140;9.234;2023-10-13T06:03:28;16.20;1.00
20446;DHT22;10382;49.140;9.234;2023-10-13T06:06:12;16.30;1.00
20446;DHT22;10382;49.140;9.234;2023-10-13T06:08:56;16.30;1.00
20446;DHT22;10382;49.140;9.234;2023-10-13T06:11:42;16.40;1.00
20446;DHT22;10382;49.140;9.234;2023-10-13T06:14:26;16.50;1.00
20446;DHT22;10382;49.140;9.234;2023-10-13T06:17:10;16.60;1.00
20446;DHT22;10382;49.140;9.234;2023-10-13T06:19:55;16.60;99.90
20446;DHT22;10382;49.140;9.234;2023-10-13T06:22:47;16.70;99.90
20446;DHT22;10382;49.140;9.234;2023-10-13T06:25:32;16.80;99.90
20446;DHT22;10382;49.140;9.234;2023-10-13T06:28:17;16.90;99.90
20446;DHT22;10382;49.140;9.234;2023-10-13T06:31:05;17.00;99.90
20446;DHT22;10382;49.140;9.234;2023-10-13T06:33:32;17.10;99.90
20446;DHT22;10382;49.140;9.234;2023-10-13T06:36:01;17.20;32.30
20446;DHT22;10382;49.140;9.234;2023-10-13T06:38:29;17.30;1.00
20446;DHT22;10382;49.140;9.234;2023-10-13T06:41:01;17.50;1.00
20446;DHT22;10382;49.140;9.234;2023-10-13T06:43:32;17.80;99.90
20446;DHT22;10382;49.140;9.234;2023-10-13T06:46:05;18.10;99.90
20446;DHT22;10382;49.140;9.234;2023-10-13T06:48:33;18.40;1.00
20446;DHT22;10382;49.140;9.234;2023-10-13T06:51:00;18.80;99.90
20446;DHT22;10382;49.140;9.234;2023-10-13T06:53:31;19.00;99.90
20446;DHT22;10382;49.140;9.234;2023-10-13T06:56:05;19.10;74.30
20446;DHT22;10382;49.140;9.234;2023-10-13T06:58:34;19.10;96.50
20446;DHT22;10382;49.140;9.234;2023-10-13T07:01:00;19.20;99.90
20446;DHT22;10382;49.140;9.234;2023-10-13T07:03:32;19.20;1.00
20446;DHT22;10382;49.140;9.234;2023-10-13T07:05:59;19.30;1.00
20446;DHT22;10382;49.140;9.234;2023-10-13T07:08:26;19.20;99.90
20446;DHT22;10382;49.140;9.234;2023-10-13T07:10:56;19.10;99.90
20446;DHT22;10382;49.140;9.234;2023-10-13T07:13:30;19.10;99.90
20446;DHT22;10382;49.140;9.234;2023-10-13T07:16:04;19.20;99.90
20446;DHT22;10382;49.140;9.234;2023-10-13T07:18:37;19.40;1.00
20446;DHT22;10382;49.140;9.234;2023-10-13T07:21:14;20.00;1.00
20446;DHT22;10382;49.140;9.234;2023-10-13T07:23:41;20.60;1.00
20446;DHT22;10382;49.140;9.234;2023-10-13T07:26:15;21.20;1.00
20446;DHT22;10382;49.140;9.234;2023-10-13T07:28:43;21.90;1.00
20446;DHT22;10382;49.140;9.234;2023-10-13T07:31:13;22.40;1.00
20446;DHT22;10382;49.140;9.234;2023-10-13T07:33:41;23.10;1.00
20446;DHT22;10382;49.140;9.234;2023-10-13T07:36:09;23.50;99.90
20446;DHT22;10382;49.140;9.234;2023-10-13T07:38:37;23.90;99.90
20446;DHT22;10382;49.140;9.234;2023-10-13T07:41:04;24.40;99.90
20446;DHT22;10382;49.140;9.234;2023-10-13T07:43:34;24.90;99.90
20446;DHT22;10382;49.140;9.234;2023-10-13T07:46:03;25.50;99.90
20446;DHT22;10382;49.140;9.234;2023-10-13T07:48:36;25.60;99.90
20446;DHT22;10382;49.140;9.234;2023-10-13T07:51:06;25.70;99.90
20446;DHT22;10382;49.140;9.234;2023-10-13T07:53:37;26.10;99.90
20446;DHT22;10382;49.140;9.234;2023-10-13T07:56:06;26.50;99.90
20446;DHT22;10382;49.140;9.234;2023-10-13T07:58:35;26.90;99.90
20446;DHT22;10382;49.140;9.234;2023-10-13T08:01:13;27.00;99.90
20446;DHT22;10382;49.140;9.234;2023-10-13T08:03:45;27.20;99.90
20446;DHT22;10382;49.140;9.234;2023-10-13T08:06:13;27.60;99.90
20446;DHT22;10382;49.140;9.234;2023-10-13T08:08:51;27.90;99.90
20446;DHT22;10382;49.140;9.234;2023-10-13T08:11:32;27.60;99.90
20446;DHT22;10382;49.140;9.234;2023-10-13T08:14:01;27.90;99.90
20446;DHT22;10382;49.140;9.234;2023-10-13T08:16:37;28.00;99.90
20446;DHT22;10382;49.140;9.234;2023-10-13T08:19:15;27.60;99.90
20446;DHT22;10382;49.140;9.234;2023-10-13T08:21:43;27.50;99.90
20446;DHT22;10382;49.140;9.234;2023-10-13T08:24:15;27.40;99.90
20446;DHT22;10382;49.140;9.234;2023-10-13T08:26:50;27.50;99.90
20446;DHT22;10382;49.140;9.234;2023-10-13T08:29:35;27.80;99.90
20446;DHT22;10382;49.140;9.234;2023-10-13T08:32:46;28.20;99.90
20446;DHT22;10382;49.140;9.234;2023-10-13T08:35:23;28.90;99.90
20446;DHT22;10382;49.140;9.234;2023-10-13T08:38:01;29.40;99.90
20446;DHT22;10382;49.140;9.234;2023-10-13T08:40:43;29.80;99.90
20446;DHT22;10382;49.140;9.234;2023-10-13T08:43:44;30.10;99.90
20446;DHT22;10382;49.140;9.234;2023-10-13T08:46:16;29.90;99.90
20446;DHT22;10382;49.140;9.234;2023-10-13T08:48:56;29.70;99.90
20446;DHT22;10382;49.140;9.234;2023-10-13T08:51:34;29.70;99.90
20446;DHT22;10382;49.140;9.234;2023-10-13T08:54:14;30.10;99.90
20446;DHT22;10382;49.140;9.234;2023-10-13T08:56:59;30.70;99.90
20446;DHT22;10382;49.140;9.234;2023-10-13T08:59:45;31.10;99.90
20446;DHT22;10382;49.140;9.234;2023-10-13T09:02:21;31.60;99.90
20446;DHT22;10382;49.140;9.234;2023-10-13T09:05:09;32.10;99.90
20446;DHT22;10382;49.140;9.234;2023-10-13T09:07:56;32.60;99.90
20446;DHT22;10382;49.140;9.234;2023-10-13T09:10:34;33.30;99.90
20446;DHT22;10382;49.140;9.234;2023-10-13T09:13:10;33.10;99.90
20446;DHT22;10382;49.140;9.234;2023-10-13T09:15:44;33.20;99.90
20446;DHT22;10382;49.140;9.234;2023-10-13T09:18:25;33.40;99.90
20446;DHT22;10382;49.140;9.234;2023-10-13T09:21:06;33.70;99.90
20446;DHT22;10382;49.140;9.234;2023-10-13T09:23:56;33.50;99.90
20446;DHT22;10382;49.140;9.234;2023-10-13T09:26:42;33.30;99.90
20446;DHT22;10382;49.140;9.234;2023-10-13T09:29:17;33.10;99.90
20446;DHT22;10382;49.140;9.234;2023-10-13T09:31:45;32.20;99.90
20446;DHT22;10382;49.140;9.234;2023-10-13T09:34:20;32.00;99.90
20446;DHT22;10382;49.140;9.234;2023-10-13T09:36:47;31.90;99.90
20446;DHT22;10382;49.140;9.234;2023-10-13T09:39:24;32.00;99.90
20446;DHT22;10382;49.140;9.234;2023-10-13T09:41:55;32.30;99.90
20446;DHT22;10382;49.140;9.234;2023-10-13T09:44:23;32.30;99.90
20446;DHT22;10382;49.140;9.234;2023-10-13T09:46:49;32.30;99.90
20446;DHT22;10382;49.140;9.234;2023-10-13T09:49:22;32.70;99.90
20446;DHT22;10382;49.140;9.234;2023-10-13T09:52:11;33.30;99.90
20446;DHT22;10382;49.140;9.234;2023-10-13T09:54:56;33.70;99.90
20446;DHT22;10382;49.140;9.234;2023-10-13T09:57:29;34.20;99.90
20446;DHT22;10382;49.140;9.234;2023-10-13T10:00:12;34.90;99.90
20446;DHT22;10382;49.140;9.234;2023-10-13T10:03:00;35.60;99.90
20446;DHT22;10382;49.140;9.234;2023-10-13T10:05:41;36.40;99.90
20446;DHT22;10382;49.140;9.234;2023-10-13T10:08:07;36.90;99.90
20446;DHT22;10382;49.140;9.234;2023-10-13T10:10:51;37.10;99.90
20446;DHT22;10382;49.140;9.234;2023-10-13T10:13:29;36.90;99.90
20446;DHT22;10382;49.140;9.234;2023-10-13T10:16:03;36.90;99.90
20446;DHT22;10382;49.140;9.234;2023-10-13T10:18:34;36.80;99.90
20446;DHT22;10382;49.140;9.234;2023-10-13T10:21:04;37.20;99.90
20446;DHT22;10382;49.140;9.234;2023-10-13T10:23:34;37.60;99.90
20446;DHT22;10382;49.140;9.234;2023-10-13T10:26:13;37.30;99.90
20446;DHT22;10382;49.140;9.234;2023-10-13T10:28:42;37.20;99.90
20446;DHT22;10382;49.140;9.234;2023-10-13T10:31:09;36.80;99.90
20446;DHT22;10382;49.140;9.234;2023-10-13T10:33:38;36.70;99.90
20446;DHT22;10382;49.140;9.234;2023-10-13T10:36:06;36.30;99.90
20446;DHT22;10382;49.140;9.234;2023-10-13T10:38:38;36.00;99.90
20446;DHT22;10382;49.140;9.234;2023-10-13T10:41:05;36.50;99.90
20446;DHT22;10382;49.140;9.234;2023-10-13T10:43:40;36.80;99.90
20446;DHT22;10382;49.140;9.234;2023-10-13T10:46:12;36.60;99.90
20446;DHT22;10382;49.140;9.234;2023-10-13T10:48:39;36.80;99.90
20446;DHT22;10382;49.140;9.234;2023-10-13T10:51:09;37.40;99.90
20446;DHT22;10382;49.140;9.234;2023-10-13T10:53:47;37.90;99.90
20446;DHT22;10382;49.140;9.234;2023-10-13T10:56:16;38.40;99.90
20446;DHT22;10382;49.140;9.234;2023-10-13T10:58:52;38.90;99.90
20446;DHT22;10382;49.140;9.234;2023-10-13T11:01:21;38.80;99.90
20446;DHT22;10382;49.140;9.234;2023-10-13T11:03:55;38.80;99.90
20446;DHT22;10382;49.140;9.234;2023-10-13T11:06:33;38.60;99.90
20446;DHT22;10382;49.140;9.234;2023-10-13T11:09:04;38.30;99.90
20446;DHT22;10382;49.140;9.234;2023-10-13T11:11:44;38.10;99.90
20446;DHT22;10382;49.140;9.234;2023-10-13T11:14:21;37.90;99.90
20446;DHT22;10382;49.140;9.234;2023-10-13T11:16:52;37.80;99.90
20446;DHT22;10382;49.140;9.234;2023-10-13T11:19:20;37.90;99.90
20446;DHT22;10382;49.140;9.234;2023-10-13T11:21:52;38.30;99.90
20446;DHT22;10382;49.140;9.234;2023-10-13T11:24:19;38.30;99.90
20446;DHT22;10382;49.140;9.234;2023-10-13T11:26:47;38.30;99.90
20446;DHT22;10382;49.140;9.234;2023-10-13T11:29:18;38.50;99.90
20446;DHT22;10382;49.140;9.234;2023-10-13T11:31:50;38.30;99.90
20446;DHT22;10382;49.140;9.234;2023-10-13T11:34:24;38.10;99.90
20446;DHT22;10382;49.140;9.234;2023-10-13T11:36:55;38.30;99.90
20446;DHT22;10382;49.140;9.234;2023-10-13T11:39:23;38.70;99.90
20446;DHT22;10382;49.140;9.234;2023-10-13T11:41:58;39.30;99.90
20446;DHT22;10382;49.140;9.234;2023-10-13T11:44:25;40.20;99.90
20446;DHT22;10382;49.140;9.234;2023-10-13T11:46:58;40.80;99.90
20446;DHT22;10382;49.140;9.234;2023-10-13T11:49:53;41.00;99.90
20446;DHT22;10382;49.140;9.234;2023-10-13T11:52:23;41.00;99.90
20446;DHT22;10382;49.140;9.234;2023-10-13T11:54:52;41.10;99.90
20446;DHT22;10382;49.140;9.234;2023-10-13T11:57:19;41.30;99.90
20446;DHT22;10382;49.140;9.234;2023-10-13T11:59:47;41.20;99.90
20446;DHT22;10382;49.140;9.234;2023-10-13T12:02:23;41.30;99.90
20446;DHT22;10382;49.140;9.234;2023-10-13T12:05:07;41.70;99.90
20446;DHT22;10382;49.140;9.234;2023-10-13T12:07:42;41.90;99.90
20446;DHT22;10382;49.140;9.234;2023-10-13T12:10:14;42.00;99.90
20446;DHT22;10382;49.140;9.234;2023-10-13T12:12:59;42.00;99.90
20446;DHT22;10382;49.140;9.234;2023-10-13T12:15:32;42.00;99.90
20446;DHT22;10382;49.140;9.234;2023-10-13T12:18:15;42.30;99.90
20446;DHT22;10382;49.140;9.234;2023-10-13T12:20:42;42.70;99.90
20446;DHT22;10382;49.140;9.234;2023-10-13T12:23:11;43.10;99.90
20446;DHT22;10382;49.140;9.234;2023-10-13T12:25:43;43.30;99.90
20446;DHT22;10382;49.140;9.234;2023-10-13T12:28:25;43.30;99.90
20446;DHT22;10382;49.140;9.234;2023-10-13T12:30:54;43.00;99.90
20446;DHT22;10382;49.140;9.234;2023-10-13T12:33:25;42.10;99.90
20446;DHT22;10382;49.140;9.234;2023-10-13T12:35:58;41.10;99.90
20446;DHT22;10382;49.140;9.234;2023-10-13T12:38:33;40.70;99.90
20446;DHT22;10382;49.140;9.234;2023-10-13T12:41:37;40.80;99.90
20446;DHT22;10382;49.140;9.234;2023-10-13T12:44:22;40.40;99.90
20446;DHT22;10382;49.140;9.234;2023-10-13T12:47:06;40.20;99.90
20446;DHT22;10382;49.140;9.234;2023-10-13T12:49:51;40.60;99.90
20446;DHT22;10382;49.140;9.234;2023-10-13T12:52:23;41.00;99.90
20446;DHT22;10382;49.140;9.234;2023-10-13T12:54:52;41.40;99.90
20446;DHT22;10382;49.140;9.234;2023-10-13T12:57:31;41.40;99.90
20446;DHT22;10382;49.140;9.234;2023-10-13T12:59:59;41.40;99.90
20446;DHT22;10382;49.140;9.234;2023-10-13T13:02:27;41.20;99.90
20446;DHT22;10382;49.140;9.234;2023-10-13T13:04:56;40.80;99.90
20446;DHT22;10382;49.140;9.234;2023-10-13T13:07:31;40.80;99.90
20446;DHT22;10382;49.140;9.234;2023-10-13T13:10:09;40.90;99.90
20446;DHT22;10382;49.140;9.234;2023-10-13T13:12:37;41.00;99.90
20446;DHT22;10382;49.140;9.234;2023-10-13T13:15:05;41.10;99.90
20446;DHT22;10382;49.140;9.234;2023-10-13T13:17:34;41.40;99.90
20446;DHT22;10382;49.140;9.234;2023-10-13T13:20:03;41.40;99.90
20446;DHT22;10382;49.140;9.234;2023-10-13T13:22:37;41.10;99.90
20446;DHT22;10382;49.140;9.234;2023-10-13T13:25:05;41.00;99.90
20446;DHT22;10382;49.140;9.234;2023-10-13T13:27:35;41.00;99.90
20446;DHT22;10382;49.140;9.234;2023-10-13T13:30:03;41.00;99.90
20446;DHT22;10382;49.140;9.234;2023-10-13T13:32:38;41.40;99.90
20446;DHT22;10382;49.140;9.234;2023-10-13T13:35:07;41.60;99.90
20446;DHT22;10382;49.140;9.234;2023-10-13T13:37:40;41.70;99.90
20446;DHT22;10382;49.140;9.234;2023-10-13T13:40:10;41.30;99.90
20446;DHT22;10382;49.140;9.234;2023-10-13T13:42:41;41.10;99.90
20446;DHT22;10382;49.140;9.234;2023-10-13T13:45:12;41.10;99.90
20446;DHT22;10382;49.140;9.234;2023-10-13T13:47:47;41.10;99.90
20446;DHT22;10382;49.140;9.234;2023-10-13T13:50:20;40.40;99.90
20446;DHT22;10382;49.140;9.234;2023-10-13T13:52:51;39.90;99.90
20446;DHT22;10382;49.140;9.234;2023-10-13T13:55:19;39.90;99.90
20446;DHT22;10382;49.140;9.234;2023-10-13T13:57:46;40.20;99.90
20446;DHT22;10382;49.140;9.234;2023-10-13T14:00:16;40.10;99.90
20446;DHT22;10382;49.140;9.234;2023-10-13T14:02:47;39.60;99.90
20446;DHT22;10382;49.140;9.234;2023-10-13T14:05:14;39.40;99.90
20446;DHT22;10382;49.140;9.234;2023-10-13T14:07:43;39.30;99.90
20446;DHT22;10382;49.140;9.234;2023-10-13T14:10:16;39.80;99.90
20446;DHT22;10382;49.140;9.234;2023-10-13T14:12:59;40.20;99.90
20446;DHT22;10382;49.140;9.234;2023-10-13T14:15:33;40.30;99.90
20446;DHT22;10382;49.140;9.234;2023-10-13T14:18:06;40.10;99.90
20446;DHT22;10382;49.140;9.234;2023-10-13T14:20:38;39.80;99.90
20446;DHT22;10382;49.140;9.234;2023-10-13T14:23:07;39.50;99.90
20446;DHT22;10382;49.140;9.234;2023-10-13T14:25:37;39.20;99.90
20446;DHT22;10382;49.140;9.234;2023-10-13T14:28:05;39.30;99.90
20446;DHT22;10382;49.140;9.234;2023-10-13T14:30:32;39.30;99.90
20446;DHT22;10382;49.140;9.234;2023-10-13T14:32:59;39.10;99.90
20446;DHT22;10382;49.140;9.234;2023-10-13T14:35:26;39.10;99.90
20446;DHT22;10382;49.140;9.234;2023-10-13T14:37:53;39.10;99.90
20446;DHT22;10382;49.140;9.234;2023-10-13T14:40:21;39.00;99.90
20446;DHT22;10382;49.140;9.234;2023-10-13T14:42:48;38.80;99.90
20446;DHT22;10382;49.140;9.234;2023-10-13T14:45:15;38.20;99.90
20446;DHT22;10382;49.140;9.234;2023-10-13T14:47:43;37.20;99.90
20446;DHT22;10382;49.140;9.234;2023-10-13T14:50:11;36.50;99.90
20446;DHT22;10382;49.140;9.234;2023-10-13T14:52:45;35.90;99.90
20446;DHT22;10382;49.140;9.234;2023-10-13T14:55:13;35.60;99.90
20446;DHT22;10382;49.140;9.234;2023-10-13T14:57:47;35.60;99.90
20446;DHT22;10382;49.140;9.234;2023-10-13T15:00:16;36.00;99.90
20446;DHT22;10382;49.140;9.234;2023-10-13T15:02:50;36.50;99.90
20446;DHT22;10382;49.140;9.234;2023-10-13T15:05:18;36.90;99.90
20446;DHT22;10382;49.140;9.234;2023-10-13T15:07:45;37.40;99.90
20446;DHT22;10382;49.140;9.234;2023-10-13T15:10:13;37.70;99.90
20446;DHT22;10382;49.140;9.234;2023-10-13T15:12:41;37.90;99.90
20446;DHT22;10382;49.140;9.234;2023-10-13T15:15:12;37.90;99.90
20446;DHT22;10382;49.140;9.234;2023-10-13T15:17:42;37.70;99.90
20446;DHT22;10382;49.140;9.234;2023-10-13T15:20:10;37.40;99.90
20446;DHT22;10382;49.140;9.234;2023-10-13T15:22:41;37.40;99.90
20446;DHT22;10382;49.140;9.234;2023-10-13T15:25:09;37.40;99.90
20446;DHT22;10382;49.140;9.234;2023-10-13T15:27:44;37.30;99.90
20446;DHT22;10382;49.140;9.234;2023-10-13T15:30:17;37.10;99.90
20446;DHT22;10382;49.140;9.234;2023-10-13T15:32:49;37.00;99.90
20446;DHT22;10382;49.140;9.234;2023-10-13T15:35:16;36.90;99.90
20446;DHT22;10382;49.140;9.234;2023-10-13T15:37:44;36.70;99.90
20446;DHT22;10382;49.140;9.234;2023-10-13T15:40:13;36.40;99.90
20446;DHT22;10382;49.140;9.234;2023-10-13T15:42:41;35.90;99.90
20446;DHT22;10382;49.140;9.234;2023-10-13T15:45:08;35.50;99.90
20446;DHT22;10382;49.140;9.234;2023-10-13T15:47:44;35.10;99.90
20446;DHT22;10382;49.140;9.234;2023-10-13T15:50:12;34.60;99.90
20446;DHT22;10382;49.140;9.234;2023-10-13T15:55:12;34.10;99.90
20446;DHT22;10382;49.140;9.234;2023-10-13T15:57:39;34.00;99.90
20446;DHT22;10382;49.140;9.234;2023-10-13T16:00:08;33.50;99.90
20446;DHT22;10382;49.140;9.234;2023-10-13T16:02:51;33.20;99.90
20446;DHT22;10382;49.140;9.234;2023-10-13T16:05:20;32.50;99.90
20446;DHT22;10382;49.140;9.234;2023-10-13T16:07:50;32.10;99.90
20446;DHT22;10382;49.140;9.234;2023-10-13T16:10:20;31.70;99.90
20446;DHT22;10382;49.140;9.234;2023-10-13T16:12:47;31.30;99.90
20446;DHT22;10382;49.140;9.234;2023-10-13T16:15:14;30.90;99.90
20446;DHT22;10382;49.140;9.234;2023-10-13T16:17:41;30.60;99.90
20446;DHT22;10382;49.140;9.234;2023-10-13T16:20:10;30.30;99.90